aviador You're here:

KPHP Decoded Metar

PHILIP in SD, USA
Report Time2018-02-22 07:55:00
UTC Time2018-02-22 08:23:51
Flight Rules vfr VFR
Wind170° at 03 kt
W.Decomp.*RWY 12: 2.3 kt HW 1.9 kt RCW
RWY 23: 1.0 kt HW 2.8 kt LCW
W.Rank170° ranks 23
Current wind is below 170° avg. (9.6)
Visibility9999 m
Phenomena:N/A
Clouds:N/A
Expected CloudBase > 800 ft AGL from Temp-Dew spread
CeilingNone
Temp-19°C (ISA -30)
Dew Point-21°C (84% RH)
AAT-23.7°C
QNH1025 hPa
Density Alt-1,946 ft
Elevation2,205 ft
Report Wrong Elevation
Raw Report
METAR KPHP 220755Z AUTO 17003KT 10SM CLR M19/M21 A3026 RMK AO2 SLP300
T11891211=

Extra information for KPHP:More info

Metar Taf Metar & Taf Last 4 Metars F.Rules Stats Wind Profile Meteogram Temp Stats Airport Information Weather charts Add Link Nearby VenuesMetar ALERT Operation Metar Decoded Social comments

AIRNAV info for KPHP